Metar Flugplatz Niederstetten

ETHN 190120Z 14004KT 9999 MIFG BKN200 06/05 Q1024 BLU+



Temperatur Niederstetten
6 Grad Celsius

QNH Niederstetten
1024
==============================================================

TAF Niederstetten:

TAF ETHN 291027Z 2911/3002 24010KT 9999 NSW FEW240 TEMPO 2911/2916 26012G22KT 9999 NSW SCT035 BKN240



Alle Angaben ohne Gewähr